sensor_id;sensor_type;location;lat;lon;timestamp;P1;durP1;ratioP1;P2;durP2;ratioP2
24729;SDS011;12832;52.392;13.066;2022-07-29T00:02:25;0.50;;;0.50;;
24729;SDS011;12832;52.392;13.066;2022-07-29T00:04:52;0.55;;;0.50;;
24729;SDS011;12832;52.392;13.066;2022-07-29T00:07:19;0.65;;;0.60;;
24729;SDS011;12832;52.392;13.066;2022-07-29T00:09:46;0.60;;;0.57;;
24729;SDS011;12832;52.392;13.066;2022-07-29T00:12:21;0.50;;;0.50;;
24729;SDS011;12832;52.392;13.066;2022-07-29T00:14:52;0.47;;;0.43;;
24729;SDS011;12832;52.392;13.066;2022-07-29T00:17:20;0.73;;;0.55;;
24729;SDS011;12832;52.392;13.066;2022-07-29T00:19:48;0.77;;;0.65;;
24729;SDS011;12832;52.392;13.066;2022-07-29T00:22:15;0.68;;;0.52;;
24729;SDS011;12832;52.392;13.066;2022-07-29T00:24:42;0.52;;;0.52;;
24729;SDS011;12832;52.392;13.066;2022-07-29T00:27:09;0.60;;;0.60;;
24729;SDS011;12832;52.392;13.066;2022-07-29T00:29:36;0.75;;;0.73;;
24729;SDS011;12832;52.392;13.066;2022-07-29T00:32:03;0.55;;;0.43;;
24729;SDS011;12832;52.392;13.066;2022-07-29T00:34:30;0.60;;;0.60;;
24729;SDS011;12832;52.392;13.066;2022-07-29T00:37:15;0.70;;;0.70;;
24729;SDS011;12832;52.392;13.066;2022-07-29T00:39:42;0.60;;;0.60;;
24729;SDS011;12832;52.392;13.066;2022-07-29T00:42:09;0.63;;;0.50;;
24729;SDS011;12832;52.392;13.066;2022-07-29T00:44:40;0.80;;;0.47;;
24729;SDS011;12832;52.392;13.066;2022-07-29T00:47:07;1.00;;;0.75;;
24729;SDS011;12832;52.392;13.066;2022-07-29T00:49:36;0.68;;;0.68;;
24729;SDS011;12832;52.392;13.066;2022-07-29T00:52:04;0.80;;;0.60;;
24729;SDS011;12832;52.392;13.066;2022-07-29T00:54:33;0.65;;;0.50;;
24729;SDS011;12832;52.392;13.066;2022-07-29T00:57:04;0.60;;;0.50;;
24729;SDS011;12832;52.392;13.066;2022-07-29T00:59:33;0.55;;;0.52;;
24729;SDS011;12832;52.392;13.066;2022-07-29T01:02:01;0.85;;;0.75;;
24729;SDS011;12832;52.392;13.066;2022-07-29T01:04:29;0.68;;;0.47;;
24729;SDS011;12832;52.392;13.066;2022-07-29T01:06:57;0.70;;;0.65;;
24729;SDS011;12832;52.392;13.066;2022-07-29T01:09:24;0.68;;;0.65;;
24729;SDS011;12832;52.392;13.066;2022-07-29T01:12:15;0.60;;;0.60;;
24729;SDS011;12832;52.392;13.066;2022-07-29T01:14:45;0.40;;;0.40;;
24729;SDS011;12832;52.392;13.066;2022-07-29T01:20:07;1.05;;;0.77;;
24729;SDS011;12832;52.392;13.066;2022-07-29T01:26:02;0.70;;;0.70;;
24729;SDS011;12832;52.392;13.066;2022-07-29T01:28:17;0.50;;;0.50;;
24729;SDS011;12832;52.392;13.066;2022-07-29T01:31:10;1.10;;;0.63;;
24729;SDS011;12832;52.392;13.066;2022-07-29T01:33:54;0.63;;;0.60;;
24729;SDS011;12832;52.392;13.066;2022-07-29T01:36:33;1.08;;;0.90;;
24729;SDS011;12832;52.392;13.066;2022-07-29T01:39:10;0.45;;;0.45;;
24729;SDS011;12832;52.392;13.066;2022-07-29T01:41:49;1.05;;;0.60;;
24729;SDS011;12832;52.392;13.066;2022-07-29T01:44:30;0.60;;;0.60;;
24729;SDS011;12832;52.392;13.066;2022-07-29T01:47:02;0.90;;;0.77;;
24729;SDS011;12832;52.392;13.066;2022-07-29T01:49:47;0.60;;;0.60;;
24729;SDS011;12832;52.392;13.066;2022-07-29T01:52:26;0.50;;;0.50;;
24729;SDS011;12832;52.392;13.066;2022-07-29T01:54:58;0.70;;;0.60;;
24729;SDS011;12832;52.392;13.066;2022-07-29T01:57:29;0.40;;;0.40;;
24729;SDS011;12832;52.392;13.066;2022-07-29T01:59:59;0.80;;;0.60;;
24729;SDS011;12832;52.392;13.066;2022-07-29T02:02:27;0.63;;;0.63;;
24729;SDS011;12832;52.392;13.066;2022-07-29T02:04:56;0.55;;;0.50;;
24729;SDS011;12832;52.392;13.066;2022-07-29T02:07:25;0.88;;;0.60;;
24729;SDS011;12832;52.392;13.066;2022-07-29T02:09:55;0.70;;;0.70;;
24729;SDS011;12832;52.392;13.066;2022-07-29T02:12:24;0.50;;;0.50;;
24729;SDS011;12832;52.392;13.066;2022-07-29T02:14:54;0.70;;;0.70;;
24729;SDS011;12832;52.392;13.066;2022-07-29T02:17:31;0.90;;;0.68;;
24729;SDS011;12832;52.392;13.066;2022-07-29T02:20:06;0.77;;;0.77;;
24729;SDS011;12832;52.392;13.066;2022-07-29T02:22:35;1.13;;;0.70;;
24729;SDS011;12832;52.392;13.066;2022-07-29T02:25:05;0.63;;;0.63;;
24729;SDS011;12832;52.392;13.066;2022-07-29T02:27:39;0.75;;;0.68;;
24729;SDS011;12832;52.392;13.066;2022-07-29T02:30:07;0.60;;;0.60;;
24729;SDS011;12832;52.392;13.066;2022-07-29T02:32:36;0.70;;;0.70;;
24729;SDS011;12832;52.392;13.066;2022-07-29T02:35:06;0.80;;;0.80;;
24729;SDS011;12832;52.392;13.066;2022-07-29T02:37:35;0.68;;;0.68;;
24729;SDS011;12832;52.392;13.066;2022-07-29T02:40:03;0.70;;;0.68;;
24729;SDS011;12832;52.392;13.066;2022-07-29T02:42:33;1.05;;;0.95;;
24729;SDS011;12832;52.392;13.066;2022-07-29T02:45:03;0.70;;;0.70;;
24729;SDS011;12832;52.392;13.066;2022-07-29T02:47:35;0.47;;;0.47;;
24729;SDS011;12832;52.392;13.066;2022-07-29T02:52:35;1.02;;;0.85;;
24729;SDS011;12832;52.392;13.066;2022-07-29T02:58:01;0.77;;;0.77;;
24729;SDS011;12832;52.392;13.066;2022-07-29T03:00:30;0.70;;;0.70;;
24729;SDS011;12832;52.392;13.066;2022-07-29T03:03:00;0.70;;;0.70;;
24729;SDS011;12832;52.392;13.066;2022-07-29T03:05:31;0.80;;;0.80;;
24729;SDS011;12832;52.392;13.066;2022-07-29T03:08:00;1.00;;;0.85;;
24729;SDS011;12832;52.392;13.066;2022-07-29T03:10:30;0.80;;;0.70;;
24729;SDS011;12832;52.392;13.066;2022-07-29T03:12:57;0.60;;;0.55;;
24729;SDS011;12832;52.392;13.066;2022-07-29T03:15:25;0.90;;;0.68;;
24729;SDS011;12832;52.392;13.066;2022-07-29T03:17:53;0.80;;;0.80;;
24729;SDS011;12832;52.392;13.066;2022-07-29T03:20:21;0.75;;;0.60;;
24729;SDS011;12832;52.392;13.066;2022-07-29T03:22:48;0.60;;;0.60;;
24729;SDS011;12832;52.392;13.066;2022-07-29T03:25:17;0.57;;;0.57;;
24729;SDS011;12832;52.392;13.066;2022-07-29T03:27:46;0.60;;;0.60;;
24729;SDS011;12832;52.392;13.066;2022-07-29T03:30:13;0.80;;;0.80;;
24729;SDS011;12832;52.392;13.066;2022-07-29T03:32:45;0.60;;;0.60;;
24729;SDS011;12832;52.392;13.066;2022-07-29T03:35:12;1.48;;;0.68;;
24729;SDS011;12832;52.392;13.066;2022-07-29T03:37:39;1.10;;;0.70;;
24729;SDS011;12832;52.392;13.066;2022-07-29T03:40:06;0.60;;;0.60;;
24729;SDS011;12832;52.392;13.066;2022-07-29T03:42:37;0.60;;;0.60;;
24729;SDS011;12832;52.392;13.066;2022-07-29T03:45:07;0.80;;;0.80;;
24729;SDS011;12832;52.392;13.066;2022-07-29T03:47:37;1.23;;;0.90;;
24729;SDS011;12832;52.392;13.066;2022-07-29T03:50:15;0.85;;;0.75;;
24729;SDS011;12832;52.392;13.066;2022-07-29T03:52:43;0.63;;;0.63;;
24729;SDS011;12832;52.392;13.066;2022-07-29T03:55:10;0.77;;;0.77;;
24729;SDS011;12832;52.392;13.066;2022-07-29T03:57:38;0.95;;;0.80;;
24729;SDS011;12832;52.392;13.066;2022-07-29T04:00:07;0.65;;;0.63;;
24729;SDS011;12832;52.392;13.066;2022-07-29T04:02:35;2.42;;;0.85;;
24729;SDS011;12832;52.392;13.066;2022-07-29T04:05:02;2.70;;;0.60;;
24729;SDS011;12832;52.392;13.066;2022-07-29T04:07:29;1.42;;;0.80;;
24729;SDS011;12832;52.392;13.066;2022-07-29T04:09:56;0.88;;;0.82;;
24729;SDS011;12832;52.392;13.066;2022-07-29T04:12:24;0.60;;;0.60;;
24729;SDS011;12832;52.392;13.066;2022-07-29T04:14:51;0.70;;;0.60;;
24729;SDS011;12832;52.392;13.066;2022-07-29T04:17:18;1.15;;;0.98;;
24729;SDS011;12832;52.392;13.066;2022-07-29T04:19:45;0.60;;;0.60;;
24729;SDS011;12832;52.392;13.066;2022-07-29T04:22:12;0.70;;;0.60;;
24729;SDS011;12832;52.392;13.066;2022-07-29T04:24:39;0.68;;;0.68;;
24729;SDS011;12832;52.392;13.066;2022-07-29T04:27:09;1.65;;;0.70;;
24729;SDS011;12832;52.392;13.066;2022-07-29T04:29:36;1.90;;;0.50;;
24729;SDS011;12832;52.392;13.066;2022-07-29T04:32:22;0.80;;;0.60;;
24729;SDS011;12832;52.392;13.066;2022-07-29T04:34:49;2.30;;;1.17;;
24729;SDS011;12832;52.392;13.066;2022-07-29T04:37:16;2.58;;;1.50;;
24729;SDS011;12832;52.392;13.066;2022-07-29T04:39:43;2.40;;;1.30;;
24729;SDS011;12832;52.392;13.066;2022-07-29T04:42:10;0.90;;;0.90;;
24729;SDS011;12832;52.392;13.066;2022-07-29T04:44:38;1.17;;;0.80;;
24729;SDS011;12832;52.392;13.066;2022-07-29T04:47:08;1.85;;;1.45;;
24729;SDS011;12832;52.392;13.066;2022-07-29T04:49:38;5.65;;;2.20;;
24729;SDS011;12832;52.392;13.066;2022-07-29T04:52:05;5.05;;;2.13;;
24729;SDS011;12832;52.392;13.066;2022-07-29T04:54:32;4.13;;;2.50;;
24729;SDS011;12832;52.392;13.066;2022-07-29T04:57:00;8.75;;;2.35;;
24729;SDS011;12832;52.392;13.066;2022-07-29T04:59:27;4.88;;;2.60;;
24729;SDS011;12832;52.392;13.066;2022-07-29T05:01:54;3.25;;;2.38;;
24729;SDS011;12832;52.392;13.066;2022-07-29T05:04:21;4.03;;;2.47;;
24729;SDS011;12832;52.392;13.066;2022-07-29T05:06:47;3.72;;;2.35;;
24729;SDS011;12832;52.392;13.066;2022-07-29T05:09:14;3.10;;;2.28;;
24729;SDS011;12832;52.392;13.066;2022-07-29T05:11:41;2.35;;;1.75;;
24729;SDS011;12832;52.392;13.066;2022-07-29T05:14:08;1.85;;;1.20;;
24729;SDS011;12832;52.392;13.066;2022-07-29T05:16:35;2.88;;;1.55;;
24729;SDS011;12832;52.392;13.066;2022-07-29T05:19:02;2.70;;;1.67;;
24729;SDS011;12832;52.392;13.066;2022-07-29T05:21:29;4.30;;;1.70;;
24729;SDS011;12832;52.392;13.066;2022-07-29T05:23:56;2.65;;;1.48;;
24729;SDS011;12832;52.392;13.066;2022-07-29T05:26:22;1.90;;;1.42;;
24729;SDS011;12832;52.392;13.066;2022-07-29T05:28:49;2.70;;;1.52;;
24729;SDS011;12832;52.392;13.066;2022-07-29T05:31:16;2.00;;;1.50;;
24729;SDS011;12832;52.392;13.066;2022-07-29T05:33:43;2.33;;;1.70;;
24729;SDS011;12832;52.392;13.066;2022-07-29T05:36:10;2.40;;;1.50;;
24729;SDS011;12832;52.392;13.066;2022-07-29T05:38:37;1.73;;;1.55;;
24729;SDS011;12832;52.392;13.066;2022-07-29T05:41:04;2.65;;;1.60;;
24729;SDS011;12832;52.392;13.066;2022-07-29T05:43:32;3.33;;;1.63;;
24729;SDS011;12832;52.392;13.066;2022-07-29T05:45:59;2.33;;;1.70;;
24729;SDS011;12832;52.392;13.066;2022-07-29T05:48:26;3.47;;;1.83;;
24729;SDS011;12832;52.392;13.066;2022-07-29T05:50:53;2.78;;;1.40;;
24729;SDS011;12832;52.392;13.066;2022-07-29T05:53:21;3.63;;;1.80;;
24729;SDS011;12832;52.392;13.066;2022-07-29T05:55:48;2.58;;;1.95;;
24729;SDS011;12832;52.392;13.066;2022-07-29T05:58:15;3.08;;;2.10;;
24729;SDS011;12832;52.392;13.066;2022-07-29T06:00:42;2.20;;;1.77;;
24729;SDS011;12832;52.392;13.066;2022-07-29T06:03:09;1.80;;;1.60;;
24729;SDS011;12832;52.392;13.066;2022-07-29T06:05:36;2.30;;;2.10;;
24729;SDS011;12832;52.392;13.066;2022-07-29T06:08:03;5.45;;;3.10;;
24729;SDS011;12832;52.392;13.066;2022-07-29T06:10:34;5.55;;;3.45;;
24729;SDS011;12832;52.392;13.066;2022-07-29T06:13:01;7.35;;;3.72;;
24729;SDS011;12832;52.392;13.066;2022-07-29T06:15:28;4.95;;;3.13;;
24729;SDS011;12832;52.392;13.066;2022-07-29T06:17:55;8.25;;;3.10;;
24729;SDS011;12832;52.392;13.066;2022-07-29T06:20:27;6.65;;;2.85;;
24729;SDS011;12832;52.392;13.066;2022-07-29T06:22:57;6.70;;;2.55;;
24729;SDS011;12832;52.392;13.066;2022-07-29T06:25:24;4.82;;;2.05;;
24729;SDS011;12832;52.392;13.066;2022-07-29T06:27:51;2.55;;;2.00;;
24729;SDS011;12832;52.392;13.066;2022-07-29T06:30:18;4.85;;;1.95;;
24729;SDS011;12832;52.392;13.066;2022-07-29T06:32:45;3.92;;;1.90;;
24729;SDS011;12832;52.392;13.066;2022-07-29T06:35:13;3.58;;;1.98;;
24729;SDS011;12832;52.392;13.066;2022-07-29T06:38:00;2.55;;;1.80;;
24729;SDS011;12832;52.392;13.066;2022-07-29T06:40:27;2.92;;;1.95;;
24729;SDS011;12832;52.392;13.066;2022-07-29T06:43:13;3.15;;;1.55;;
24729;SDS011;12832;52.392;13.066;2022-07-29T06:45:40;3.25;;;2.00;;
24729;SDS011;12832;52.392;13.066;2022-07-29T06:48:08;3.95;;;1.73;;
24729;SDS011;12832;52.392;13.066;2022-07-29T06:50:36;3.67;;;1.88;;
24729;SDS011;12832;52.392;13.066;2022-07-29T06:53:03;2.88;;;1.95;;
24729;SDS011;12832;52.392;13.066;2022-07-29T06:55:30;3.88;;;2.00;;
24729;SDS011;12832;52.392;13.066;2022-07-29T06:57:57;2.45;;;1.98;;
24729;SDS011;12832;52.392;13.066;2022-07-29T07:00:24;4.28;;;2.08;;
24729;SDS011;12832;52.392;13.066;2022-07-29T07:02:51;3.85;;;1.77;;
24729;SDS011;12832;52.392;13.066;2022-07-29T07:05:18;2.83;;;1.80;;
24729;SDS011;12832;52.392;13.066;2022-07-29T07:07:45;4.80;;;2.00;;
24729;SDS011;12832;52.392;13.066;2022-07-29T07:10:12;2.13;;;1.85;;
24729;SDS011;12832;52.392;13.066;2022-07-29T07:12:39;2.65;;;2.00;;
24729;SDS011;12832;52.392;13.066;2022-07-29T07:15:06;2.55;;;1.70;;
24729;SDS011;12832;52.392;13.066;2022-07-29T07:17:33;2.65;;;1.63;;
24729;SDS011;12832;52.392;13.066;2022-07-29T07:20:00;3.92;;;2.03;;
24729;SDS011;12832;52.392;13.066;2022-07-29T07:22:27;2.63;;;1.90;;
24729;SDS011;12832;52.392;13.066;2022-07-29T07:24:53;2.85;;;2.08;;
24729;SDS011;12832;52.392;13.066;2022-07-29T07:27:20;2.25;;;1.65;;
24729;SDS011;12832;52.392;13.066;2022-07-29T07:29:47;3.17;;;1.80;;
24729;SDS011;12832;52.392;13.066;2022-07-29T07:32:14;2.97;;;2.10;;
24729;SDS011;12832;52.392;13.066;2022-07-29T07:34:45;2.10;;;1.88;;
24729;SDS011;12832;52.392;13.066;2022-07-29T07:37:12;3.58;;;1.75;;
24729;SDS011;12832;52.392;13.066;2022-07-29T07:39:41;2.00;;;1.75;;
24729;SDS011;12832;52.392;13.066;2022-07-29T07:42:08;3.25;;;1.80;;
24729;SDS011;12832;52.392;13.066;2022-07-29T07:44:37;3.15;;;2.28;;
24729;SDS011;12832;52.392;13.066;2022-07-29T07:47:24;7.00;;;2.55;;
24729;SDS011;12832;52.392;13.066;2022-07-29T07:49:53;9.75;;;2.85;;
24729;SDS011;12832;52.392;13.066;2022-07-29T07:52:20;8.88;;;2.92;;
24729;SDS011;12832;52.392;13.066;2022-07-29T07:54:48;5.60;;;2.50;;
24729;SDS011;12832;52.392;13.066;2022-07-29T07:57:15;5.85;;;2.35;;
24729;SDS011;12832;52.392;13.066;2022-07-29T07:59:42;3.50;;;2.30;;
24729;SDS011;12832;52.392;13.066;2022-07-29T08:02:09;3.58;;;1.77;;
24729;SDS011;12832;52.392;13.066;2022-07-29T08:04:36;5.47;;;2.00;;
24729;SDS011;12832;52.392;13.066;2022-07-29T08:07:03;3.20;;;2.10;;
24729;SDS011;12832;52.392;13.066;2022-07-29T08:09:30;2.65;;;2.03;;
24729;SDS011;12832;52.392;13.066;2022-07-29T08:11:58;3.28;;;1.70;;
24729;SDS011;12832;52.392;13.066;2022-07-29T08:14:25;2.83;;;1.73;;
24729;SDS011;12832;52.392;13.066;2022-07-29T08:16:52;2.28;;;1.85;;
24729;SDS011;12832;52.392;13.066;2022-07-29T08:19:20;2.80;;;1.95;;
24729;SDS011;12832;52.392;13.066;2022-07-29T08:21:46;2.45;;;1.55;;
24729;SDS011;12832;52.392;13.066;2022-07-29T08:24:13;2.30;;;1.77;;
24729;SDS011;12832;52.392;13.066;2022-07-29T08:26:59;3.25;;;1.83;;
24729;SDS011;12832;52.392;13.066;2022-07-29T08:29:26;3.58;;;1.85;;
24729;SDS011;12832;52.392;13.066;2022-07-29T08:31:53;2.72;;;1.90;;
24729;SDS011;12832;52.392;13.066;2022-07-29T08:34:20;4.32;;;1.90;;
24729;SDS011;12832;52.392;13.066;2022-07-29T08:36:53;1.90;;;1.67;;
24729;SDS011;12832;52.392;13.066;2022-07-29T08:39:20;3.10;;;1.73;;
24729;SDS011;12832;52.392;13.066;2022-07-29T08:41:48;2.05;;;1.60;;
24729;SDS011;12832;52.392;13.066;2022-07-29T08:44:27;2.65;;;1.60;;
24729;SDS011;12832;52.392;13.066;2022-07-29T08:46:56;2.78;;;1.73;;
24729;SDS011;12832;52.392;13.066;2022-07-29T08:49:23;4.10;;;1.80;;
24729;SDS011;12832;52.392;13.066;2022-07-29T08:51:50;4.82;;;1.75;;
24729;SDS011;12832;52.392;13.066;2022-07-29T08:54:20;3.42;;;1.60;;
24729;SDS011;12832;52.392;13.066;2022-07-29T08:56:50;2.45;;;1.70;;
24729;SDS011;12832;52.392;13.066;2022-07-29T08:59:20;2.72;;;1.80;;
24729;SDS011;12832;52.392;13.066;2022-07-29T09:01:51;3.63;;;1.55;;
24729;SDS011;12832;52.392;13.066;2022-07-29T09:04:20;2.70;;;1.80;;
24729;SDS011;12832;52.392;13.066;2022-07-29T09:06:49;2.97;;;1.58;;
24729;SDS011;12832;52.392;13.066;2022-07-29T09:09:18;3.25;;;1.52;;
24729;SDS011;12832;52.392;13.066;2022-07-29T09:11:45;2.50;;;1.33;;
24729;SDS011;12832;52.392;13.066;2022-07-29T09:14:12;2.70;;;1.55;;
24729;SDS011;12832;52.392;13.066;2022-07-29T09:16:47;2.65;;;1.60;;
24729;SDS011;12832;52.392;13.066;2022-07-29T09:19:19;3.60;;;1.60;;
24729;SDS011;12832;52.392;13.066;2022-07-29T09:21:48;1.90;;;1.20;;
24729;SDS011;12832;52.392;13.066;2022-07-29T09:24:28;2.58;;;1.20;;
24729;SDS011;12832;52.392;13.066;2022-07-29T09:27:03;3.88;;;1.67;;
24729;SDS011;12832;52.392;13.066;2022-07-29T09:29:35;3.05;;;1.58;;
24729;SDS011;12832;52.392;13.066;2022-07-29T09:32:05;2.63;;;1.83;;
24729;SDS011;12832;52.392;13.066;2022-07-29T09:34:36;1.63;;;1.48;;
24729;SDS011;12832;52.392;13.066;2022-07-29T09:37:03;2.97;;;1.42;;
24729;SDS011;12832;52.392;13.066;2022-07-29T09:39:32;1.30;;;1.20;;
24729;SDS011;12832;52.392;13.066;2022-07-29T09:42:02;2.30;;;1.50;;
24729;SDS011;12832;52.392;13.066;2022-07-29T09:44:47;1.85;;;1.30;;
24729;SDS011;12832;52.392;13.066;2022-07-29T09:47:15;3.17;;;1.58;;
24729;SDS011;12832;52.392;13.066;2022-07-29T09:49:54;2.55;;;1.40;;
24729;SDS011;12832;52.392;13.066;2022-07-29T09:52:26;3.92;;;1.48;;
24729;SDS011;12832;52.392;13.066;2022-07-29T09:55:03;1.75;;;1.33;;
24729;SDS011;12832;52.392;13.066;2022-07-29T09:57:31;2.42;;;1.65;;
24729;SDS011;12832;52.392;13.066;2022-07-29T10:00:04;2.72;;;1.10;;
24729;SDS011;12832;52.392;13.066;2022-07-29T10:02:39;3.10;;;1.65;;
24729;SDS011;12832;52.392;13.066;2022-07-29T10:07:54;2.72;;;1.70;;
24729;SDS011;12832;52.392;13.066;2022-07-29T10:10:24;2.35;;;1.40;;
24729;SDS011;12832;52.392;13.066;2022-07-29T10:15:21;1.80;;;1.40;;
24729;SDS011;12832;52.392;13.066;2022-07-29T10:17:53;1.80;;;1.38;;
24729;SDS011;12832;52.392;13.066;2022-07-29T10:20:21;3.10;;;1.30;;
24729;SDS011;12832;52.392;13.066;2022-07-29T10:22:49;1.83;;;1.38;;
24729;SDS011;12832;52.392;13.066;2022-07-29T10:25:19;3.63;;;1.55;;
24729;SDS011;12832;52.392;13.066;2022-07-29T10:27:47;1.90;;;1.48;;
24729;SDS011;12832;52.392;13.066;2022-07-29T10:30:15;1.60;;;1.10;;
24729;SDS011;12832;52.392;13.066;2022-07-29T10:32:58;2.75;;;1.30;;
24729;SDS011;12832;52.392;13.066;2022-07-29T10:38:41;3.00;;;1.17;;
24729;SDS011;12832;52.392;13.066;2022-07-29T10:41:28;2.72;;;1.48;;
24729;SDS011;12832;52.392;13.066;2022-07-29T10:44:24;2.80;;;1.75;;
24729;SDS011;12832;52.392;13.066;2022-07-29T10:46:53;2.38;;;1.35;;
24729;SDS011;12832;52.392;13.066;2022-07-29T10:49:27;2.47;;;1.50;;
24729;SDS011;12832;52.392;13.066;2022-07-29T10:52:06;1.30;;;1.20;;
24729;SDS011;12832;52.392;13.066;2022-07-29T10:57:38;2.10;;;1.30;;
24729;SDS011;12832;52.392;13.066;2022-07-29T11:00:25;1.63;;;1.27;;
24729;SDS011;12832;52.392;13.066;2022-07-29T11:02:53;3.47;;;1.38;;
24729;SDS011;12832;52.392;13.066;2022-07-29T11:05:22;3.28;;;1.50;;
24729;SDS011;12832;52.392;13.066;2022-07-29T11:10:46;2.67;;;1.40;;
24729;SDS011;12832;52.392;13.066;2022-07-29T11:16:14;2.13;;;1.25;;
24729;SDS011;12832;52.392;13.066;2022-07-29T11:21:46;1.33;;;1.17;;
24729;SDS011;12832;52.392;13.066;2022-07-29T11:24:27;2.55;;;1.25;;
24729;SDS011;12832;52.392;13.066;2022-07-29T11:27:13;1.48;;;1.38;;
24729;SDS011;12832;52.392;13.066;2022-07-29T11:29:49;1.95;;;1.10;;
24729;SDS011;12832;52.392;13.066;2022-07-29T11:32:21;1.95;;;1.33;;
24729;SDS011;12832;52.392;13.066;2022-07-29T11:35:10;2.28;;;1.33;;
24729;SDS011;12832;52.392;13.066;2022-07-29T11:37:44;1.35;;;1.20;;
24729;SDS011;12832;52.392;13.066;2022-07-29T11:40:22;2.03;;;1.45;;
24729;SDS011;12832;52.392;13.066;2022-07-29T11:42:50;1.60;;;1.30;;
24729;SDS011;12832;52.392;13.066;2022-07-29T11:45:21;2.75;;;1.20;;
24729;SDS011;12832;52.392;13.066;2022-07-29T11:48:14;4.05;;;1.60;;
24729;SDS011;12832;52.392;13.066;2022-07-29T11:50:57;1.75;;;1.25;;
24729;SDS011;12832;52.392;13.066;2022-07-29T11:53:25;2.55;;;1.50;;
24729;SDS011;12832;52.392;13.066;2022-07-29T11:55:57;1.83;;;1.35;;
24729;SDS011;12832;52.392;13.066;2022-07-29T11:58:25;2.50;;;1.48;;
24729;SDS011;12832;52.392;13.066;2022-07-29T12:00:54;2.03;;;1.55;;
24729;SDS011;12832;52.392;13.066;2022-07-29T12:03:26;2.85;;;1.35;;
24729;SDS011;12832;52.392;13.066;2022-07-29T12:06:15;1.63;;;1.50;;
24729;SDS011;12832;52.392;13.066;2022-07-29T12:08:43;2.03;;;1.27;;
24729;SDS011;12832;52.392;13.066;2022-07-29T12:11:20;4.45;;;1.73;;
24729;SDS011;12832;52.392;13.066;2022-07-29T12:13:48;1.48;;;1.35;;
24729;SDS011;12832;52.392;13.066;2022-07-29T12:16:17;1.73;;;1.45;;
24729;SDS011;12832;52.392;13.066;2022-07-29T12:18:55;2.60;;;1.60;;
24729;SDS011;12832;52.392;13.066;2022-07-29T12:21:23;3.78;;;1.48;;
24729;SDS011;12832;52.392;13.066;2022-07-29T12:23:54;2.60;;;1.52;;
24729;SDS011;12832;52.392;13.066;2022-07-29T12:26:30;1.80;;;1.40;;
24729;SDS011;12832;52.392;13.066;2022-07-29T12:28:59;2.58;;;1.35;;
24729;SDS011;12832;52.392;13.066;2022-07-29T12:31:28;2.22;;;1.55;;
24729;SDS011;12832;52.392;13.066;2022-07-29T12:34:10;1.58;;;1.48;;
24729;SDS011;12832;52.392;13.066;2022-07-29T12:36:38;4.72;;;1.63;;
24729;SDS011;12832;52.392;13.066;2022-07-29T12:39:06;1.90;;;1.50;;
24729;SDS011;12832;52.392;13.066;2022-07-29T12:41:35;2.83;;;1.40;;
24729;SDS011;12832;52.392;13.066;2022-07-29T12:44:02;1.67;;;1.55;;
24729;SDS011;12832;52.392;13.066;2022-07-29T12:46:29;2.40;;;1.67;;
24729;SDS011;12832;52.392;13.066;2022-07-29T12:48:56;3.30;;;1.85;;
24729;SDS011;12832;52.392;13.066;2022-07-29T12:56:37;1.73;;;1.40;;
24729;SDS011;12832;52.392;13.066;2022-07-29T12:59:16;1.92;;;1.40;;
24729;SDS011;12832;52.392;13.066;2022-07-29T13:01:45;2.17;;;1.38;;
24729;SDS011;12832;52.392;13.066;2022-07-29T13:04:25;1.55;;;1.38;;
24729;SDS011;12832;52.392;13.066;2022-07-29T13:06:59;1.92;;;1.38;;
24729;SDS011;12832;52.392;13.066;2022-07-29T13:09:37;3.25;;;1.75;;
24729;SDS011;12832;52.392;13.066;2022-07-29T13:12:08;1.70;;;1.60;;
24729;SDS011;12832;52.392;13.066;2022-07-29T13:14:37;2.92;;;1.58;;
24729;SDS011;12832;52.392;13.066;2022-07-29T13:17:08;2.35;;;1.67;;
24729;SDS011;12832;52.392;13.066;2022-07-29T13:22:10;2.70;;;1.38;;
24729;SDS011;12832;52.392;13.066;2022-07-29T13:24:45;3.75;;;1.80;;
24729;SDS011;12832;52.392;13.066;2022-07-29T13:27:22;4.82;;;1.40;;
24729;SDS011;12832;52.392;13.066;2022-07-29T13:29:53;2.20;;;1.75;;
24729;SDS011;12832;52.392;13.066;2022-07-29T13:32:26;2.10;;;1.50;;
24729;SDS011;12832;52.392;13.066;2022-07-29T13:34:55;2.22;;;1.45;;
24729;SDS011;12832;52.392;13.066;2022-07-29T13:37:23;2.05;;;1.42;;
24729;SDS011;12832;52.392;13.066;2022-07-29T13:39:50;2.03;;;1.60;;
24729;SDS011;12832;52.392;13.066;2022-07-29T13:42:19;2.03;;;1.08;;
24729;SDS011;12832;52.392;13.066;2022-07-29T13:44:46;1.73;;;1.40;;
24729;SDS011;12832;52.392;13.066;2022-07-29T13:47:14;2.10;;;1.40;;
24729;SDS011;12832;52.392;13.066;2022-07-29T13:49:42;2.55;;;1.50;;
24729;SDS011;12832;52.392;13.066;2022-07-29T13:52:09;1.58;;;1.30;;
24729;SDS011;12832;52.392;13.066;2022-07-29T13:54:36;1.90;;;1.35;;
24729;SDS011;12832;52.392;13.066;2022-07-29T13:57:08;1.60;;;1.33;;
24729;SDS011;12832;52.392;13.066;2022-07-29T13:59:37;1.95;;;1.33;;
24729;SDS011;12832;52.392;13.066;2022-07-29T14:02:05;2.58;;;1.77;;
24729;SDS011;12832;52.392;13.066;2022-07-29T14:04:33;1.92;;;1.50;;
24729;SDS011;12832;52.392;13.066;2022-07-29T14:07:01;2.75;;;1.35;;
24729;SDS011;12832;52.392;13.066;2022-07-29T14:09:29;1.73;;;1.33;;
24729;SDS011;12832;52.392;13.066;2022-07-29T14:12:07;1.80;;;1.33;;
24729;SDS011;12832;52.392;13.066;2022-07-29T14:14:34;2.55;;;1.70;;
24729;SDS011;12832;52.392;13.066;2022-07-29T14:17:03;1.98;;;1.33;;
24729;SDS011;12832;52.392;13.066;2022-07-29T14:19:33;3.95;;;1.75;;
24729;SDS011;12832;52.392;13.066;2022-07-29T14:22:04;1.95;;;1.50;;
24729;SDS011;12832;52.392;13.066;2022-07-29T14:24:34;1.77;;;1.50;;
24729;SDS011;12832;52.392;13.066;2022-07-29T14:27:03;1.75;;;1.23;;
24729;SDS011;12832;52.392;13.066;2022-07-29T14:29:31;1.13;;;1.10;;
24729;SDS011;12832;52.392;13.066;2022-07-29T14:32:06;1.60;;;1.33;;
24729;SDS011;12832;52.392;13.066;2022-07-29T14:34:34;2.58;;;1.83;;
24729;SDS011;12832;52.392;13.066;2022-07-29T14:37:04;2.15;;;1.50;;
24729;SDS011;12832;52.392;13.066;2022-07-29T14:39:33;2.00;;;1.50;;
24729;SDS011;12832;52.392;13.066;2022-07-29T14:42:08;1.40;;;1.30;;
24729;SDS011;12832;52.392;13.066;2022-07-29T14:44:38;1.80;;;1.40;;
24729;SDS011;12832;52.392;13.066;2022-07-29T14:47:09;2.60;;;1.80;;
24729;SDS011;12832;52.392;13.066;2022-07-29T14:49:36;2.50;;;1.75;;
24729;SDS011;12832;52.392;13.066;2022-07-29T14:52:03;1.70;;;1.40;;
24729;SDS011;12832;52.392;13.066;2022-07-29T14:54:30;3.17;;;1.40;;
24729;SDS011;12832;52.392;13.066;2022-07-29T14:56:57;1.40;;;1.30;;
24729;SDS011;12832;52.392;13.066;2022-07-29T14:59:24;3.65;;;1.55;;
24729;SDS011;12832;52.392;13.066;2022-07-29T15:01:52;1.73;;;1.45;;
24729;SDS011;12832;52.392;13.066;2022-07-29T15:04:19;2.08;;;1.42;;
24729;SDS011;12832;52.392;13.066;2022-07-29T15:06:46;1.90;;;1.50;;
24729;SDS011;12832;52.392;13.066;2022-07-29T15:09:13;2.35;;;1.50;;
24729;SDS011;12832;52.392;13.066;2022-07-29T15:11:40;1.83;;;1.40;;
24729;SDS011;12832;52.392;13.066;2022-07-29T15:14:07;1.75;;;1.50;;
24729;SDS011;12832;52.392;13.066;2022-07-29T15:16:38;1.67;;;1.58;;
24729;SDS011;12832;52.392;13.066;2022-07-29T15:19:09;2.00;;;1.80;;
24729;SDS011;12832;52.392;13.066;2022-07-29T15:21:36;2.05;;;1.55;;
24729;SDS011;12832;52.392;13.066;2022-07-29T15:24:14;1.83;;;1.40;;
24729;SDS011;12832;52.392;13.066;2022-07-29T15:26:42;1.50;;;1.40;;
24729;SDS011;12832;52.392;13.066;2022-07-29T15:29:10;1.75;;;1.40;;
24729;SDS011;12832;52.392;13.066;2022-07-29T15:31:37;1.80;;;1.40;;